sensor_id;sensor_type;location;lat;lon;timestamp;temperature;humidity
64111;DHT22;50401;48.188;11.566;2023-08-06T00:00:44;16.17;87.67
64111;DHT22;50401;48.188;11.566;2023-08-06T00:03:10;16.23;87.78
64111;DHT22;50401;48.188;11.566;2023-08-06T00:05:35;16.26;87.87
64111;DHT22;50401;48.188;11.566;2023-08-06T00:08:00;16.32;87.68
64111;DHT22;50401;48.188;11.566;2023-08-06T00:10:26;16.34;87.48
64111;DHT22;50401;48.188;11.566;2023-08-06T00:12:51;16.40;87.47
64111;DHT22;50401;48.188;11.566;2023-08-06T00:15:17;16.30;87.37
64111;DHT22;50401;48.188;11.566;2023-08-06T00:17:42;16.24;87.56
64111;DHT22;50401;48.188;11.566;2023-08-06T00:20:08;16.20;87.72
64111;DHT22;50401;48.188;11.566;2023-08-06T00:22:35;16.22;87.77
64111;DHT22;50401;48.188;11.566;2023-08-06T00:25:01;16.26;87.77
64111;DHT22;50401;48.188;11.566;2023-08-06T00:27:26;16.20;87.81
64111;DHT22;50401;48.188;11.566;2023-08-06T00:29:52;16.26;87.74
64111;DHT22;50401;48.188;11.566;2023-08-06T00:32:18;16.26;87.73
64111;DHT22;50401;48.188;11.566;2023-08-06T00:34:43;16.26;87.70
64111;DHT22;50401;48.188;11.566;2023-08-06T00:37:08;16.26;87.61
64111;DHT22;50401;48.188;11.566;2023-08-06T00:39:33;16.19;87.01
64111;DHT22;50401;48.188;11.566;2023-08-06T00:41:59;16.15;86.86
64111;DHT22;50401;48.188;11.566;2023-08-06T00:44:24;16.13;86.25
64111;DHT22;50401;48.188;11.566;2023-08-06T00:46:50;15.85;86.34
64111;DHT22;50401;48.188;11.566;2023-08-06T00:49:15;15.78;86.61
64111;DHT22;50401;48.188;11.566;2023-08-06T00:51:42;15.82;86.51
64111;DHT22;50401;48.188;11.566;2023-08-06T00:54:08;15.85;86.40
64111;DHT22;50401;48.188;11.566;2023-08-06T00:56:35;15.88;86.30
64111;DHT22;50401;48.188;11.566;2023-08-06T00:59:04;15.89;86.42
64111;DHT22;50401;48.188;11.566;2023-08-06T01:01:30;15.89;86.38
64111;DHT22;50401;48.188;11.566;2023-08-06T01:03:56;15.92;86.25
64111;DHT22;50401;48.188;11.566;2023-08-06T01:10:05;15.88;86.55
64111;DHT22;50401;48.188;11.566;2023-08-06T01:15:14;15.84;86.89
64111;DHT22;50401;48.188;11.566;2023-08-06T01:17:40;15.85;86.88
64111;DHT22;50401;48.188;11.566;2023-08-06T01:20:06;15.84;86.74
64111;DHT22;50401;48.188;11.566;2023-08-06T01:22:32;15.81;86.52
64111;DHT22;50401;48.188;11.566;2023-08-06T01:24:57;15.77;86.49
64111;DHT22;50401;48.188;11.566;2023-08-06T01:27:41;15.75;86.58
64111;DHT22;50401;48.188;11.566;2023-08-06T01:30:29;15.80;86.65
64111;DHT22;50401;48.188;11.566;2023-08-06T01:33:00;15.74;86.61
64111;DHT22;50401;48.188;11.566;2023-08-06T01:35:29;15.70;86.61
64111;DHT22;50401;48.188;11.566;2023-08-06T01:37:55;15.68;86.67
64111;DHT22;50401;48.188;11.566;2023-08-06T01:40:21;15.67;86.83
64111;DHT22;50401;48.188;11.566;2023-08-06T01:42:47;15.64;86.92
64111;DHT22;50401;48.188;11.566;2023-08-06T01:45:12;15.64;86.92
64111;DHT22;50401;48.188;11.566;2023-08-06T01:47:37;15.63;86.94
64111;DHT22;50401;48.188;11.566;2023-08-06T01:50:03;15.56;87.04
64111;DHT22;50401;48.188;11.566;2023-08-06T01:52:28;15.58;87.15
64111;DHT22;50401;48.188;11.566;2023-08-06T01:54:54;15.57;87.01
64111;DHT22;50401;48.188;11.566;2023-08-06T01:57:20;15.51;87.00
64111;DHT22;50401;48.188;11.566;2023-08-06T01:59:45;15.53;87.02
64111;DHT22;50401;48.188;11.566;2023-08-06T02:02:10;15.49;87.04
64111;DHT22;50401;48.188;11.566;2023-08-06T02:04:36;15.49;87.20
64111;DHT22;50401;48.188;11.566;2023-08-06T02:07:01;15.46;87.09
64111;DHT22;50401;48.188;11.566;2023-08-06T02:09:26;15.25;87.09
64111;DHT22;50401;48.188;11.566;2023-08-06T02:11:51;15.32;87.29
64111;DHT22;50401;48.188;11.566;2023-08-06T02:14:17;15.33;87.20
64111;DHT22;50401;48.188;11.566;2023-08-06T02:16:42;15.25;87.62
64111;DHT22;50401;48.188;11.566;2023-08-06T02:19:07;15.26;87.52
64111;DHT22;50401;48.188;11.566;2023-08-06T02:21:33;15.26;87.37
64111;DHT22;50401;48.188;11.566;2023-08-06T02:23:58;15.25;87.15
64111;DHT22;50401;48.188;11.566;2023-08-06T02:26:24;15.15;87.28
64111;DHT22;50401;48.188;11.566;2023-08-06T02:28:49;15.16;87.33
64111;DHT22;50401;48.188;11.566;2023-08-06T02:31:14;15.12;87.29
64111;DHT22;50401;48.188;11.566;2023-08-06T02:33:39;15.18;87.35
64111;DHT22;50401;48.188;11.566;2023-08-06T02:36:05;15.25;87.16
64111;DHT22;50401;48.188;11.566;2023-08-06T02:38:31;15.18;87.01
64111;DHT22;50401;48.188;11.566;2023-08-06T02:40:56;15.19;87.18
64111;DHT22;50401;48.188;11.566;2023-08-06T02:43:22;15.16;86.98
64111;DHT22;50401;48.188;11.566;2023-08-06T02:45:47;14.96;87.27
64111;DHT22;50401;48.188;11.566;2023-08-06T02:48:12;14.99;87.30
64111;DHT22;50401;48.188;11.566;2023-08-06T02:50:41;15.04;87.25
64111;DHT22;50401;48.188;11.566;2023-08-06T02:53:07;15.01;87.24
64111;DHT22;50401;48.188;11.566;2023-08-06T02:55:33;14.96;87.23
64111;DHT22;50401;48.188;11.566;2023-08-06T02:58:00;14.96;87.32
64111;DHT22;50401;48.188;11.566;2023-08-06T03:00:26;15.08;87.33
64111;DHT22;50401;48.188;11.566;2023-08-06T03:02:51;15.11;87.25
64111;DHT22;50401;48.188;11.566;2023-08-06T03:05:16;15.21;87.30
64111;DHT22;50401;48.188;11.566;2023-08-06T03:07:42;15.23;87.19
64111;DHT22;50401;48.188;11.566;2023-08-06T03:10:07;15.28;87.17
64111;DHT22;50401;48.188;11.566;2023-08-06T03:12:33;15.36;86.94
64111;DHT22;50401;48.188;11.566;2023-08-06T03:14:58;15.36;86.55
64111;DHT22;50401;48.188;11.566;2023-08-06T03:17:23;15.33;86.65
64111;DHT22;50401;48.188;11.566;2023-08-06T03:19:48;15.33;86.64
64111;DHT22;50401;48.188;11.566;2023-08-06T03:22:14;15.30;86.76
64111;DHT22;50401;48.188;11.566;2023-08-06T03:24:39;15.28;86.80
64111;DHT22;50401;48.188;11.566;2023-08-06T03:27:05;15.29;86.71
64111;DHT22;50401;48.188;11.566;2023-08-06T03:29:30;15.25;86.71
64111;DHT22;50401;48.188;11.566;2023-08-06T03:31:55;15.21;86.83
64111;DHT22;50401;48.188;11.566;2023-08-06T03:34:21;15.12;86.91
64111;DHT22;50401;48.188;11.566;2023-08-06T03:36:46;15.09;87.02
64111;DHT22;50401;48.188;11.566;2023-08-06T03:39:12;15.11;86.85
64111;DHT22;50401;48.188;11.566;2023-08-06T03:41:39;15.08;86.88
64111;DHT22;50401;48.188;11.566;2023-08-06T03:44:05;15.11;86.84
64111;DHT22;50401;48.188;11.566;2023-08-06T03:46:30;15.13;86.89
64111;DHT22;50401;48.188;11.566;2023-08-06T03:49:02;15.13;86.81
64111;DHT22;50401;48.188;11.566;2023-08-06T03:51:27;15.12;86.77
64111;DHT22;50401;48.188;11.566;2023-08-06T03:53:53;15.15;86.65
64111;DHT22;50401;48.188;11.566;2023-08-06T03:56:18;15.13;86.71
64111;DHT22;50401;48.188;11.566;2023-08-06T03:58:43;14.99;86.88
64111;DHT22;50401;48.188;11.566;2023-08-06T04:01:09;15.04;86.65
64111;DHT22;50401;48.188;11.566;2023-08-06T04:03:34;15.02;86.72
64111;DHT22;50401;48.188;11.566;2023-08-06T04:06:02;15.02;86.66
64111;DHT22;50401;48.188;11.566;2023-08-06T04:08:27;14.99;86.52
64111;DHT22;50401;48.188;11.566;2023-08-06T04:10:53;14.87;86.62
64111;DHT22;50401;48.188;11.566;2023-08-06T04:13:19;14.92;86.59
64111;DHT22;50401;48.188;11.566;2023-08-06T04:15:44;14.99;86.56
64111;DHT22;50401;48.188;11.566;2023-08-06T04:18:10;15.01;86.37
64111;DHT22;50401;48.188;11.566;2023-08-06T04:20:42;15.01;86.37
64111;DHT22;50401;48.188;11.566;2023-08-06T04:23:08;14.98;86.50
64111;DHT22;50401;48.188;11.566;2023-08-06T04:25:33;15.04;86.29
64111;DHT22;50401;48.188;11.566;2023-08-06T04:27:58;15.02;86.18
64111;DHT22;50401;48.188;11.566;2023-08-06T04:30:23;15.04;86.25
64111;DHT22;50401;48.188;11.566;2023-08-06T04:32:49;15.06;86.11
64111;DHT22;50401;48.188;11.566;2023-08-06T04:35:15;15.11;86.22
64111;DHT22;50401;48.188;11.566;2023-08-06T04:37:40;15.21;85.82
64111;DHT22;50401;48.188;11.566;2023-08-06T04:40:06;15.35;85.64
64111;DHT22;50401;48.188;11.566;2023-08-06T04:42:31;15.57;85.35
64111;DHT22;50401;48.188;11.566;2023-08-06T04:44:57;15.77;84.54
64111;DHT22;50401;48.188;11.566;2023-08-06T04:47:22;15.89;84.05
64111;DHT22;50401;48.188;11.566;2023-08-06T04:49:48;15.95;83.77
64111;DHT22;50401;48.188;11.566;2023-08-06T04:52:13;15.91;84.01
64111;DHT22;50401;48.188;11.566;2023-08-06T04:54:38;16.02;83.68
64111;DHT22;50401;48.188;11.566;2023-08-06T04:57:04;16.33;83.12
64111;DHT22;50401;48.188;11.566;2023-08-06T04:59:30;16.32;82.46
64111;DHT22;50401;48.188;11.566;2023-08-06T05:01:55;16.24;82.59
64111;DHT22;50401;48.188;11.566;2023-08-06T05:04:20;16.13;82.62
64111;DHT22;50401;48.188;11.566;2023-08-06T05:06:46;16.19;82.69
64111;DHT22;50401;48.188;11.566;2023-08-06T05:09:11;15.99;82.98
64111;DHT22;50401;48.188;11.566;2023-08-06T05:11:36;15.94;82.67
64111;DHT22;50401;48.188;11.566;2023-08-06T05:14:02;15.88;82.93
64111;DHT22;50401;48.188;11.566;2023-08-06T05:16:27;15.88;83.24
64111;DHT22;50401;48.188;11.566;2023-08-06T05:18:53;15.81;83.27
64111;DHT22;50401;48.188;11.566;2023-08-06T05:21:18;15.78;83.57
64111;DHT22;50401;48.188;11.566;2023-08-06T05:23:44;15.78;83.67
64111;DHT22;50401;48.188;11.566;2023-08-06T05:26:09;15.67;83.98
64111;DHT22;50401;48.188;11.566;2023-08-06T05:28:34;15.65;83.94
64111;DHT22;50401;48.188;11.566;2023-08-06T05:31:06;15.64;83.95
64111;DHT22;50401;48.188;11.566;2023-08-06T05:33:31;15.72;84.05
64111;DHT22;50401;48.188;11.566;2023-08-06T05:35:57;15.82;83.86
64111;DHT22;50401;48.188;11.566;2023-08-06T05:38:22;15.74;83.94
64111;DHT22;50401;48.188;11.566;2023-08-06T05:40:48;15.67;83.99
64111;DHT22;50401;48.188;11.566;2023-08-06T05:43:14;15.64;83.79
64111;DHT22;50401;48.188;11.566;2023-08-06T05:45:39;15.63;83.94
64111;DHT22;50401;48.188;11.566;2023-08-06T05:48:05;15.49;84.41
64111;DHT22;50401;48.188;11.566;2023-08-06T05:50:30;15.54;84.35
64111;DHT22;50401;48.188;11.566;2023-08-06T05:52:55;15.54;84.13
64111;DHT22;50401;48.188;11.566;2023-08-06T05:55:21;15.57;84.35
64111;DHT22;50401;48.188;11.566;2023-08-06T05:57:46;15.67;83.80
64111;DHT22;50401;48.188;11.566;2023-08-06T06:00:11;15.70;83.60
64111;DHT22;50401;48.188;11.566;2023-08-06T06:02:37;15.70;83.61
64111;DHT22;50401;48.188;11.566;2023-08-06T06:05:02;15.67;83.77
64111;DHT22;50401;48.188;11.566;2023-08-06T06:07:27;15.61;83.32
64111;DHT22;50401;48.188;11.566;2023-08-06T06:09:53;15.65;83.32
64111;DHT22;50401;48.188;11.566;2023-08-06T06:12:18;15.70;82.91
64111;DHT22;50401;48.188;11.566;2023-08-06T06:14:43;15.78;82.78
64111;DHT22;50401;48.188;11.566;2023-08-06T06:17:09;15.88;82.23
64111;DHT22;50401;48.188;11.566;2023-08-06T06:19:34;15.88;81.93
64111;DHT22;50401;48.188;11.566;2023-08-06T06:21:59;15.99;81.74
64111;DHT22;50401;48.188;11.566;2023-08-06T06:24:25;16.09;81.88
64111;DHT22;50401;48.188;11.566;2023-08-06T06:26:50;16.09;81.21
64111;DHT22;50401;48.188;11.566;2023-08-06T06:29:15;16.12;81.27
64111;DHT22;50401;48.188;11.566;2023-08-06T06:31:41;16.19;81.59
64111;DHT22;50401;48.188;11.566;2023-08-06T06:34:06;16.10;81.66
64111;DHT22;50401;48.188;11.566;2023-08-06T06:36:31;16.26;81.48
64111;DHT22;50401;48.188;11.566;2023-08-06T06:38:57;16.41;80.90
64111;DHT22;50401;48.188;11.566;2023-08-06T06:41:22;16.53;80.24
64111;DHT22;50401;48.188;11.566;2023-08-06T06:43:49;16.61;79.94
64111;DHT22;50401;48.188;11.566;2023-08-06T06:46:14;16.68;79.27
64111;DHT22;50401;48.188;11.566;2023-08-06T06:48:39;16.85;79.08
64111;DHT22;50401;48.188;11.566;2023-08-06T06:51:05;16.99;78.39
64111;DHT22;50401;48.188;11.566;2023-08-06T06:53:30;17.27;76.35
64111;DHT22;50401;48.188;11.566;2023-08-06T06:56:03;17.65;75.63
64111;DHT22;50401;48.188;11.566;2023-08-06T06:58:30;17.93;74.27
64111;DHT22;50401;48.188;11.566;2023-08-06T07:00:55;18.49;72.95
64111;DHT22;50401;48.188;11.566;2023-08-06T07:03:21;18.43;72.09
64111;DHT22;50401;48.188;11.566;2023-08-06T07:05:46;18.44;72.12
64111;DHT22;50401;48.188;11.566;2023-08-06T07:08:11;19.56;68.96
64111;DHT22;50401;48.188;11.566;2023-08-06T07:10:37;21.17;65.64
64111;DHT22;50401;48.188;11.566;2023-08-06T07:13:02;21.66;62.95
64111;DHT22;50401;48.188;11.566;2023-08-06T07:15:28;21.07;62.96
64111;DHT22;50401;48.188;11.566;2023-08-06T07:17:54;20.22;64.34
64111;DHT22;50401;48.188;11.566;2023-08-06T07:20:19;19.70;66.45
64111;DHT22;50401;48.188;11.566;2023-08-06T07:22:45;19.15;67.75
64111;DHT22;50401;48.188;11.566;2023-08-06T07:25:10;18.62;67.89
64111;DHT22;50401;48.188;11.566;2023-08-06T07:27:36;18.36;69.58
64111;DHT22;50401;48.188;11.566;2023-08-06T07:30:01;18.14;70.99
64111;DHT22;50401;48.188;11.566;2023-08-06T07:32:27;17.82;73.03
64111;DHT22;50401;48.188;11.566;2023-08-06T07:34:55;17.62;75.00
64111;DHT22;50401;48.188;11.566;2023-08-06T07:37:24;17.43;75.93
64111;DHT22;50401;48.188;11.566;2023-08-06T07:39:50;17.28;77.33
64111;DHT22;50401;48.188;11.566;2023-08-06T07:42:15;17.15;77.79
64111;DHT22;50401;48.188;11.566;2023-08-06T07:44:41;17.06;78.35
64111;DHT22;50401;48.188;11.566;2023-08-06T07:47:06;17.06;78.81
64111;DHT22;50401;48.188;11.566;2023-08-06T07:49:31;16.92;78.44
64111;DHT22;50401;48.188;11.566;2023-08-06T07:51:57;16.75;78.10
64111;DHT22;50401;48.188;11.566;2023-08-06T07:54:22;16.68;78.17
64111;DHT22;50401;48.188;11.566;2023-08-06T07:56:49;16.75;78.14
64111;DHT22;50401;48.188;11.566;2023-08-06T07:59:14;16.75;78.46
64111;DHT22;50401;48.188;11.566;2023-08-06T08:01:40;16.74;78.23
64111;DHT22;50401;48.188;11.566;2023-08-06T08:04:05;16.83;77.34
64111;DHT22;50401;48.188;11.566;2023-08-06T08:06:30;17.13;76.45
64111;DHT22;50401;48.188;11.566;2023-08-06T08:08:56;17.16;75.15
64111;DHT22;50401;48.188;11.566;2023-08-06T08:11:21;17.65;74.50
64111;DHT22;50401;48.188;11.566;2023-08-06T08:13:46;18.02;74.63
64111;DHT22;50401;48.188;11.566;2023-08-06T08:16:12;18.40;72.99
64111;DHT22;50401;48.188;11.566;2023-08-06T08:18:37;18.66;72.01
64111;DHT22;50401;48.188;11.566;2023-08-06T08:21:03;19.24;69.32
64111;DHT22;50401;48.188;11.566;2023-08-06T08:23:28;21.24;64.17
64111;DHT22;50401;48.188;11.566;2023-08-06T08:25:53;22.25;61.92
64111;DHT22;50401;48.188;11.566;2023-08-06T08:28:19;21.34;63.22
64111;DHT22;50401;48.188;11.566;2023-08-06T08:30:45;20.65;63.40
64111;DHT22;50401;48.188;11.566;2023-08-06T08:33:10;21.39;62.08
64111;DHT22;50401;48.188;11.566;2023-08-06T08:35:36;20.76;62.25
64111;DHT22;50401;48.188;11.566;2023-08-06T08:38:02;20.29;64.01
64111;DHT22;50401;48.188;11.566;2023-08-06T08:40:31;19.69;65.34
64111;DHT22;50401;48.188;11.566;2023-08-06T08:42:58;19.38;66.76
64111;DHT22;50401;48.188;11.566;2023-08-06T08:45:26;19.38;66.18
64111;DHT22;50401;48.188;11.566;2023-08-06T08:47:53;18.93;67.57
64111;DHT22;50401;48.188;11.566;2023-08-06T08:50:19;19.03;67.15
64111;DHT22;50401;48.188;11.566;2023-08-06T08:52:45;18.77;67.59
64111;DHT22;50401;48.188;11.566;2023-08-06T08:55:12;18.49;69.04
64111;DHT22;50401;48.188;11.566;2023-08-06T08:57:37;18.38;68.11
64111;DHT22;50401;48.188;11.566;2023-08-06T09:00:03;18.16;68.49
64111;DHT22;50401;48.188;11.566;2023-08-06T09:02:31;17.85;68.71
64111;DHT22;50401;48.188;11.566;2023-08-06T09:05:01;17.85;69.53
64111;DHT22;50401;48.188;11.566;2023-08-06T09:07:32;17.72;68.68
64111;DHT22;50401;48.188;11.566;2023-08-06T09:09:59;17.72;68.93
64111;DHT22;50401;48.188;11.566;2023-08-06T09:12:26;17.62;69.53
64111;DHT22;50401;48.188;11.566;2023-08-06T09:14:52;17.58;69.46
64111;DHT22;50401;48.188;11.566;2023-08-06T09:17:17;17.60;70.79
64111;DHT22;50401;48.188;11.566;2023-08-06T09:19:45;17.47;73.01
64111;DHT22;50401;48.188;11.566;2023-08-06T09:22:12;17.19;71.78
64111;DHT22;50401;48.188;11.566;2023-08-06T09:24:40;17.03;72.55
64111;DHT22;50401;48.188;11.566;2023-08-06T09:27:10;17.06;71.36
64111;DHT22;50401;48.188;11.566;2023-08-06T09:29:43;17.13;71.29
64111;DHT22;50401;48.188;11.566;2023-08-06T09:32:08;17.15;70.61
64111;DHT22;50401;48.188;11.566;2023-08-06T09:34:34;17.27;70.26
64111;DHT22;50401;48.188;11.566;2023-08-06T09:36:59;17.34;69.61
64111;DHT22;50401;48.188;11.566;2023-08-06T09:39:29;17.35;69.04
64111;DHT22;50401;48.188;11.566;2023-08-06T09:41:56;17.43;69.30
64111;DHT22;50401;48.188;11.566;2023-08-06T09:44:23;17.51;69.30
64111;DHT22;50401;48.188;11.566;2023-08-06T09:46:55;17.52;69.07
64111;DHT22;50401;48.188;11.566;2023-08-06T09:49:25;17.60;69.60
64111;DHT22;50401;48.188;11.566;2023-08-06T09:51:54;17.47;69.60
64111;DHT22;50401;48.188;11.566;2023-08-06T09:54:24;17.35;69.32
64111;DHT22;50401;48.188;11.566;2023-08-06T09:56:49;17.33;69.22
64111;DHT22;50401;48.188;11.566;2023-08-06T09:59:16;17.57;68.01
64111;DHT22;50401;48.188;11.566;2023-08-06T10:01:42;17.72;67.30
64111;DHT22;50401;48.188;11.566;2023-08-06T10:04:08;17.61;68.30
64111;DHT22;50401;48.188;11.566;2023-08-06T10:06:35;17.47;68.02
64111;DHT22;50401;48.188;11.566;2023-08-06T10:09:03;17.40;68.21
64111;DHT22;50401;48.188;11.566;2023-08-06T10:11:29;17.37;68.12
64111;DHT22;50401;48.188;11.566;2023-08-06T10:14:00;17.52;67.66
64111;DHT22;50401;48.188;11.566;2023-08-06T10:16:29;17.62;67.44
64111;DHT22;50401;48.188;11.566;2023-08-06T10:18:55;17.81;67.49
64111;DHT22;50401;48.188;11.566;2023-08-06T10:21:23;17.87;68.01
64111;DHT22;50401;48.188;11.566;2023-08-06T10:23:54;17.96;66.86
64111;DHT22;50401;48.188;11.566;2023-08-06T10:26:20;18.43;65.60
64111;DHT22;50401;48.188;11.566;2023-08-06T10:28:45;18.68;65.09
64111;DHT22;50401;48.188;11.566;2023-08-06T10:31:10;19.18;64.13
64111;DHT22;50401;48.188;11.566;2023-08-06T10:33:43;18.87;64.72
64111;DHT22;50401;48.188;11.566;2023-08-06T10:36:10;18.47;64.81
64111;DHT22;50401;48.188;11.566;2023-08-06T10:38:44;18.09;65.73
64111;DHT22;50401;48.188;11.566;2023-08-06T10:41:35;17.87;66.29
64111;DHT22;50401;48.188;11.566;2023-08-06T10:44:06;17.97;66.82
64111;DHT22;50401;48.188;11.566;2023-08-06T10:46:33;18.21;66.06
64111;DHT22;50401;48.188;11.566;2023-08-06T10:48:59;18.52;65.91
64111;DHT22;50401;48.188;11.566;2023-08-06T10:51:24;18.58;65.62
64111;DHT22;50401;48.188;11.566;2023-08-06T10:53:50;18.73;65.13
64111;DHT22;50401;48.188;11.566;2023-08-06T10:56:24;18.97;64.68
64111;DHT22;50401;48.188;11.566;2023-08-06T10:58:54;19.03;64.00
64111;DHT22;50401;48.188;11.566;2023-08-06T11:01:21;19.30;63.27
64111;DHT22;50401;48.188;11.566;2023-08-06T11:03:47;19.39;63.20
64111;DHT22;50401;48.188;11.566;2023-08-06T11:06:18;19.07;63.26
64111;DHT22;50401;48.188;11.566;2023-08-06T11:08:50;18.99;63.91
64111;DHT22;50401;48.188;11.566;2023-08-06T11:11:17;18.63;63.81
64111;DHT22;50401;48.188;11.566;2023-08-06T11:13:47;18.31;64.66
64111;DHT22;50401;48.188;11.566;2023-08-06T11:16:17;18.14;65.49
64111;DHT22;50401;48.188;11.566;2023-08-06T11:18:43;18.09;65.84
64111;DHT22;50401;48.188;11.566;2023-08-06T11:21:09;18.09;65.83
64111;DHT22;50401;48.188;11.566;2023-08-06T11:23:35;17.99;65.94
64111;DHT22;50401;48.188;11.566;2023-08-06T11:26:01;18.00;65.65
64111;DHT22;50401;48.188;11.566;2023-08-06T11:28:27;18.18;65.76
64111;DHT22;50401;48.188;11.566;2023-08-06T11:30:53;18.03;65.28
64111;DHT22;50401;48.188;11.566;2023-08-06T11:33:24;17.89;66.20
64111;DHT22;50401;48.188;11.566;2023-08-06T11:35:54;17.85;66.11
64111;DHT22;50401;48.188;11.566;2023-08-06T11:38:20;18.00;66.18
64111;DHT22;50401;48.188;11.566;2023-08-06T11:40:45;18.14;66.42
64111;DHT22;50401;48.188;11.566;2023-08-06T11:43:12;18.51;65.89
64111;DHT22;50401;48.188;11.566;2023-08-06T11:45:38;18.92;65.01
64111;DHT22;50401;48.188;11.566;2023-08-06T11:48:04;18.97;63.82
64111;DHT22;50401;48.188;11.566;2023-08-06T11:50:30;18.90;64.62
64111;DHT22;50401;48.188;11.566;2023-08-06T11:53:00;18.54;65.13
64111;DHT22;50401;48.188;11.566;2023-08-06T11:55:27;18.40;65.56
64111;DHT22;50401;48.188;11.566;2023-08-06T11:57:53;18.30;66.21
64111;DHT22;50401;48.188;11.566;2023-08-06T12:00:20;18.20;66.44
64111;DHT22;50401;48.188;11.566;2023-08-06T12:02:49;18.20;66.73
64111;DHT22;50401;48.188;11.566;2023-08-06T12:05:17;18.14;66.60
64111;DHT22;50401;48.188;11.566;2023-08-06T12:07:49;18.07;66.52
64111;DHT22;50401;48.188;11.566;2023-08-06T12:10:16;18.17;66.97
64111;DHT22;50401;48.188;11.566;2023-08-06T12:12:42;18.38;66.30
64111;DHT22;50401;48.188;11.566;2023-08-06T12:15:09;18.51;66.21
64111;DHT22;50401;48.188;11.566;2023-08-06T12:17:35;18.43;66.10
64111;DHT22;50401;48.188;11.566;2023-08-06T12:20:00;18.56;66.31
64111;DHT22;50401;48.188;11.566;2023-08-06T12:22:26;18.41;66.10
64111;DHT22;50401;48.188;11.566;2023-08-06T12:24:51;18.52;66.05
64111;DHT22;50401;48.188;11.566;2023-08-06T12:27:16;18.55;65.99
64111;DHT22;50401;48.188;11.566;2023-08-06T12:29:43;18.47;66.34
64111;DHT22;50401;48.188;11.566;2023-08-06T12:32:09;18.31;66.53
64111;DHT22;50401;48.188;11.566;2023-08-06T12:34:35;18.24;66.95
64111;DHT22;50401;48.188;11.566;2023-08-06T12:37:02;18.09;67.11
64111;DHT22;50401;48.188;11.566;2023-08-06T12:39:27;17.96;67.53
64111;DHT22;50401;48.188;11.566;2023-08-06T12:41:54;17.90;69.42
64111;DHT22;50401;48.188;11.566;2023-08-06T12:44:20;17.69;72.85
64111;DHT22;50401;48.188;11.566;2023-08-06T12:46:45;17.65;73.78
64111;DHT22;50401;48.188;11.566;2023-08-06T12:49:11;17.41;73.70
64111;DHT22;50401;48.188;11.566;2023-08-06T12:51:36;17.41;74.75
64111;DHT22;50401;48.188;11.566;2023-08-06T12:54:02;17.30;76.47
64111;DHT22;50401;48.188;11.566;2023-08-06T12:56:27;17.38;77.15
64111;DHT22;50401;48.188;11.566;2023-08-06T12:58:52;17.41;76.96
64111;DHT22;50401;48.188;11.566;2023-08-06T13:01:18;17.69;75.90
64111;DHT22;50401;48.188;11.566;2023-08-06T13:03:43;17.78;72.95
64111;DHT22;50401;48.188;11.566;2023-08-06T13:06:08;17.68;72.99
64111;DHT22;50401;48.188;11.566;2023-08-06T13:08:35;17.85;71.71
64111;DHT22;50401;48.188;11.566;2023-08-06T13:11:00;17.92;71.73
64111;DHT22;50401;48.188;11.566;2023-08-06T13:13:26;18.11;71.11
64111;DHT22;50401;48.188;11.566;2023-08-06T13:15:52;18.16;69.17
64111;DHT22;50401;48.188;11.566;2023-08-06T13:18:17;18.27;68.21
64111;DHT22;50401;48.188;11.566;2023-08-06T13:20:43;18.03;68.63
64111;DHT22;50401;48.188;11.566;2023-08-06T13:23:08;17.82;71.12
64111;DHT22;50401;48.188;11.566;2023-08-06T13:25:34;17.65;73.31
64111;DHT22;50401;48.188;11.566;2023-08-06T13:28:02;17.57;74.34
64111;DHT22;50401;48.188;11.566;2023-08-06T13:30:28;17.27;75.81
64111;DHT22;50401;48.188;11.566;2023-08-06T13:32:53;17.22;75.98
64111;DHT22;50401;48.188;11.566;2023-08-06T13:35:20;17.27;75.90
64111;DHT22;50401;48.188;11.566;2023-08-06T13:37:46;17.40;74.92
64111;DHT22;50401;48.188;11.566;2023-08-06T13:40:13;17.62;73.13
64111;DHT22;50401;48.188;11.566;2023-08-06T13:42:39;17.81;72.40
64111;DHT22;50401;48.188;11.566;2023-08-06T13:45:06;17.96;71.90
64111;DHT22;50401;48.188;11.566;2023-08-06T13:47:31;17.64;71.11
64111;DHT22;50401;48.188;11.566;2023-08-06T13:49:56;17.67;71.12
64111;DHT22;50401;48.188;11.566;2023-08-06T13:52:22;17.54;71.86
64111;DHT22;50401;48.188;11.566;2023-08-06T13:54:47;17.61;72.84
64111;DHT22;50401;48.188;11.566;2023-08-06T13:57:12;17.55;73.90
64111;DHT22;50401;48.188;11.566;2023-08-06T13:59:38;17.44;74.23
64111;DHT22;50401;48.188;11.566;2023-08-06T14:02:03;17.34;74.81
64111;DHT22;50401;48.188;11.566;2023-08-06T14:04:29;17.20;74.94
64111;DHT22;50401;48.188;11.566;2023-08-06T14:06:54;17.03;74.95
64111;DHT22;50401;48.188;11.566;2023-08-06T14:09:19;16.92;75.24
64111;DHT22;50401;48.188;11.566;2023-08-06T14:11:45;17.00;75.15
64111;DHT22;50401;48.188;11.566;2023-08-06T14:14:11;17.15;74.63
64111;DHT22;50401;48.188;11.566;2023-08-06T14:16:36;17.33;74.83
64111;DHT22;50401;48.188;11.566;2023-08-06T14:19:02;17.33;75.73
64111;DHT22;50401;48.188;11.566;2023-08-06T14:21:27;17.20;76.15
64111;DHT22;50401;48.188;11.566;2023-08-06T14:23:53;17.28;76.33
64111;DHT22;50401;48.188;11.566;2023-08-06T14:26:18;17.24;76.99
64111;DHT22;50401;48.188;11.566;2023-08-06T14:28:43;17.26;78.03
64111;DHT22;50401;48.188;11.566;2023-08-06T14:31:09;17.31;77.95
64111;DHT22;50401;48.188;11.566;2023-08-06T14:33:34;17.26;77.80
64111;DHT22;50401;48.188;11.566;2023-08-06T14:35:59;17.26;78.11
64111;DHT22;50401;48.188;11.566;2023-08-06T14:38:25;17.22;79.06
64111;DHT22;50401;48.188;11.566;2023-08-06T14:40:50;16.65;79.88
64111;DHT22;50401;48.188;11.566;2023-08-06T14:43:15;16.27;81.41
64111;DHT22;50401;48.188;11.566;2023-08-06T14:45:41;16.17;81.68
64111;DHT22;50401;48.188;11.566;2023-08-06T14:48:06;16.06;82.13
64111;DHT22;50401;48.188;11.566;2023-08-06T14:50:32;15.97;82.40
64111;DHT22;50401;48.188;11.566;2023-08-06T14:52:57;16.02;82.40
64111;DHT22;50401;48.188;11.566;2023-08-06T14:55:26;15.92;82.22
64111;DHT22;50401;48.188;11.566;2023-08-06T14:57:52;15.95;82.58
64111;DHT22;50401;48.188;11.566;2023-08-06T15:00:18;16.04;82.08
64111;DHT22;50401;48.188;11.566;2023-08-06T15:02:43;15.88;82.36
64111;DHT22;50401;48.188;11.566;2023-08-06T15:05:09;16.15;82.04
64111;DHT22;50401;48.188;11.566;2023-08-06T15:07:34;16.24;81.74
64111;DHT22;50401;48.188;11.566;2023-08-06T15:10:04;16.12;81.57
64111;DHT22;50401;48.188;11.566;2023-08-06T15:12:31;15.99;80.99
64111;DHT22;50401;48.188;11.566;2023-08-06T15:14:57;16.04;81.00